Terminal Aerodrome Forecast
Issued by NWS

Home | Current Version | Previous Version | Text Only | Print | Product List | Glossary On
Versions: 1 2 3 4 5 6 7 8 9 10 11 12 13
000
FTUS43 KGRR 222340
TAFLAN
TAF
KLAN 222340Z 2300/2324 18009KT P6SM VCSH OVC060 WS020/19030KT
     FM230600 20006KT 5SM SHRA BR OVC035
     FM230800 21005KT 5SM -RA BR OVC009
     FM231300 18004KT 3SM RA BR OVC005
     FM231800 15006KT 1 1/2SM +RA BR OVC004=

USA.gov is the U.S. government's official web portal to all federal, state and local government web resources and services.